sensor_id;sensor_type;location;lat;lon;timestamp;pressure;altitude;pressure_sealevel;temperature;humidity
62025;BME280;47978;49.118;12.146;2023-01-28T00:00:53;97965.38;;;0.11;86.11
62025;BME280;47978;49.118;12.146;2023-01-28T00:04:55;97959.38;;;0.09;86.25
62025;BME280;47978;49.118;12.146;2023-01-28T00:08:56;97960.56;;;0.13;86.03
62025;BME280;47978;49.118;12.146;2023-01-28T00:12:59;97955.38;;;0.12;85.80
62025;BME280;47978;49.118;12.146;2023-01-28T00:17:03;97952.41;;;0.13;85.92
62025;BME280;47978;49.118;12.146;2023-01-28T00:21:05;97956.09;;;0.19;85.93
62025;BME280;47978;49.118;12.146;2023-01-28T00:25:07;97956.03;;;0.07;85.98
62025;BME280;47978;49.118;12.146;2023-01-28T00:29:10;97958.59;;;0.02;86.74
62025;BME280;47978;49.118;12.146;2023-01-28T00:33:11;97962.53;;;0.06;86.88
62025;BME280;47978;49.118;12.146;2023-01-28T00:37:13;97957.38;;;0.16;85.89
62025;BME280;47978;49.118;12.146;2023-01-28T00:41:15;97960.56;;;0.13;86.34
62025;BME280;47978;49.118;12.146;2023-01-28T00:45:18;97958.59;;;0.20;85.38
62025;BME280;47978;49.118;12.146;2023-01-28T00:49:20;97968.09;;;0.11;86.22
62025;BME280;47978;49.118;12.146;2023-01-28T00:53:21;97961.00;;;0.10;86.07
62025;BME280;47978;49.118;12.146;2023-01-28T00:57:23;97964.03;;;0.02;86.02
62025;BME280;47978;49.118;12.146;2023-01-28T01:01:26;97969.16;;;0.10;86.01
62025;BME280;47978;49.118;12.146;2023-01-28T01:05:28;97976.59;;;0.03;86.39
62025;BME280;47978;49.118;12.146;2023-01-28T01:09:29;97977.16;;;0.05;86.24
62025;BME280;47978;49.118;12.146;2023-01-28T01:13:31;97975.88;;;0.08;85.89
62025;BME280;47978;49.118;12.146;2023-01-28T01:17:34;97980.50;;;0.07;86.31
62025;BME280;47978;49.118;12.146;2023-01-28T01:21:36;97987.75;;;-0.05;86.77
62025;BME280;47978;49.118;12.146;2023-01-28T01:25:38;97983.88;;;0.03;86.67
62025;BME280;47978;49.118;12.146;2023-01-28T01:29:40;97998.78;;;0.00;86.91
62025;BME280;47978;49.118;12.146;2023-01-28T01:33:44;97997.09;;;-0.01;86.55
62025;BME280;47978;49.118;12.146;2023-01-28T01:37:46;98003.16;;;0.01;86.70
62025;BME280;47978;49.118;12.146;2023-01-28T01:41:47;97998.34;;;0.03;87.00
62025;BME280;47978;49.118;12.146;2023-01-28T01:45:49;98009.59;;;0.07;87.37
62025;BME280;47978;49.118;12.146;2023-01-28T01:49:55;98008.75;;;0.06;87.52
62025;BME280;47978;49.118;12.146;2023-01-28T01:53:57;98003.16;;;0.19;86.77
62025;BME280;47978;49.118;12.146;2023-01-28T01:58:01;98008.31;;;0.09;86.81
62025;BME280;47978;49.118;12.146;2023-01-28T02:02:03;98016.66;;;0.08;87.23
62025;BME280;47978;49.118;12.146;2023-01-28T02:06:08;98017.56;;;0.02;87.91
62025;BME280;47978;49.118;12.146;2023-01-28T02:10:10;98015.38;;;-0.08;88.59
62025;BME280;47978;49.118;12.146;2023-01-28T02:14:12;98013.59;;;0.04;88.65
62025;BME280;47978;49.118;12.146;2023-01-28T02:18:30;98020.09;;;0.03;89.18
62025;BME280;47978;49.118;12.146;2023-01-28T02:22:49;98015.22;;;0.05;89.15
62025;BME280;47978;49.118;12.146;2023-01-28T02:26:58;98020.97;;;-0.03;89.92
62025;BME280;47978;49.118;12.146;2023-01-28T02:31:05;98017.88;;;-0.07;90.33
62025;BME280;47978;49.118;12.146;2023-01-28T02:35:11;98022.03;;;-0.04;90.67
62025;BME280;47978;49.118;12.146;2023-01-28T02:39:15;98030.63;;;-0.07;91.06
62025;BME280;47978;49.118;12.146;2023-01-28T02:43:27;98032.53;;;-0.08;91.44
62025;BME280;47978;49.118;12.146;2023-01-28T02:47:31;98037.78;;;-0.13;92.21
62025;BME280;47978;49.118;12.146;2023-01-28T02:51:35;98033.81;;;-0.10;91.97
62025;BME280;47978;49.118;12.146;2023-01-28T02:55:42;98034.88;;;-0.11;92.28
62025;BME280;47978;49.118;12.146;2023-01-28T02:59:48;98038.16;;;-0.09;92.09
62025;BME280;47978;49.118;12.146;2023-01-28T03:03:56;98032.97;;;-0.11;92.27
62025;BME280;47978;49.118;12.146;2023-01-28T03:07:58;98038.56;;;-0.06;92.57
62025;BME280;47978;49.118;12.146;2023-01-28T03:12:01;98039.69;;;0.05;91.67
62025;BME280;47978;49.118;12.146;2023-01-28T03:16:04;98029.13;;;-0.03;92.32
62025;BME280;47978;49.118;12.146;2023-01-28T03:20:08;98029.44;;;0.26;91.08
62025;BME280;47978;49.118;12.146;2023-01-28T03:24:10;98029.75;;;0.17;91.21
62025;BME280;47978;49.118;12.146;2023-01-28T03:28:14;98034.75;;;0.20;90.41
62025;BME280;47978;49.118;12.146;2023-01-28T03:32:17;98037.00;;;0.24;90.93
62025;BME280;47978;49.118;12.146;2023-01-28T03:36:21;98046.66;;;0.19;91.14
62025;BME280;47978;49.118;12.146;2023-01-28T03:40:22;98045.00;;;0.18;90.55
62025;BME280;47978;49.118;12.146;2023-01-28T03:44:24;98045.00;;;0.37;90.51
62025;BME280;47978;49.118;12.146;2023-01-28T03:48:26;98042.06;;;0.20;90.99
62025;BME280;47978;49.118;12.146;2023-01-28T03:52:30;98050.91;;;0.15;91.32
62025;BME280;47978;49.118;12.146;2023-01-28T03:56:32;98055.19;;;0.05;91.47
62025;BME280;47978;49.118;12.146;2023-01-28T04:00:33;98046.56;;;0.08;91.98
62025;BME280;47978;49.118;12.146;2023-01-28T04:04:35;98046.13;;;0.11;91.86
62025;BME280;47978;49.118;12.146;2023-01-28T04:08:38;98051.59;;;0.29;91.20
62025;BME280;47978;49.118;12.146;2023-01-28T04:12:40;98039.31;;;0.02;91.89
62025;BME280;47978;49.118;12.146;2023-01-28T04:16:42;98048.53;;;0.01;92.10
62025;BME280;47978;49.118;12.146;2023-01-28T04:20:43;98050.66;;;0.17;91.19
62025;BME280;47978;49.118;12.146;2023-01-28T04:24:46;98050.38;;;0.07;91.29
62025;BME280;47978;49.118;12.146;2023-01-28T04:28:47;98056.28;;;-0.03;92.05
62025;BME280;47978;49.118;12.146;2023-01-28T04:32:49;98060.97;;;-0.10;92.46
62025;BME280;47978;49.118;12.146;2023-01-28T04:36:50;98066.59;;;0.13;91.63
62025;BME280;47978;49.118;12.146;2023-01-28T04:40:53;98064.03;;;0.00;91.89
62025;BME280;47978;49.118;12.146;2023-01-28T04:44:55;98061.91;;;0.02;91.80
62025;BME280;47978;49.118;12.146;2023-01-28T04:48:57;98072.31;;;0.05;91.83
62025;BME280;47978;49.118;12.146;2023-01-28T04:52:58;98070.69;;;0.22;90.59
62025;BME280;47978;49.118;12.146;2023-01-28T04:57:01;98071.00;;;0.33;89.96
62025;BME280;47978;49.118;12.146;2023-01-28T05:01:03;98072.94;;;0.26;89.93
62025;BME280;47978;49.118;12.146;2023-01-28T05:05:05;98072.94;;;0.26;89.57
62025;BME280;47978;49.118;12.146;2023-01-28T05:09:06;98070.22;;;0.07;90.54
62025;BME280;47978;49.118;12.146;2023-01-28T05:13:09;98072.78;;;0.02;91.38
62025;BME280;47978;49.118;12.146;2023-01-28T05:17:11;98068.50;;;0.13;90.85
62025;BME280;47978;49.118;12.146;2023-01-28T05:21:12;98068.63;;;-0.01;91.27
62025;BME280;47978;49.118;12.146;2023-01-28T05:25:14;98066.03;;;-0.14;92.15
62025;BME280;47978;49.118;12.146;2023-01-28T05:29:18;98070.13;;;-0.05;90.62
62025;BME280;47978;49.118;12.146;2023-01-28T05:33:19;98067.59;;;-0.25;91.59
62025;BME280;47978;49.118;12.146;2023-01-28T05:37:21;98065.59;;;-0.36;92.36
62025;BME280;47978;49.118;12.146;2023-01-28T05:41:22;98069.59;;;-0.38;92.01
62025;BME280;47978;49.118;12.146;2023-01-28T05:45:25;98070.47;;;-0.44;92.39
62025;BME280;47978;49.118;12.146;2023-01-28T05:49:26;98079.28;;;-0.49;93.03
62025;BME280;47978;49.118;12.146;2023-01-28T05:53:28;98081.16;;;-0.50;92.68
62025;BME280;47978;49.118;12.146;2023-01-28T05:57:29;98075.41;;;-0.35;92.22
62025;BME280;47978;49.118;12.146;2023-01-28T06:01:32;98088.09;;;-0.54;93.05
62025;BME280;47978;49.118;12.146;2023-01-28T06:05:34;98087.09;;;-0.59;93.29
62025;BME280;47978;49.118;12.146;2023-01-28T06:09:35;98090.22;;;-0.31;92.01
62025;BME280;47978;49.118;12.146;2023-01-28T06:13:37;98097.97;;;-0.34;91.98
62025;BME280;47978;49.118;12.146;2023-01-28T06:17:39;98099.34;;;-0.50;92.52
62025;BME280;47978;49.118;12.146;2023-01-28T06:21:41;98110.13;;;-0.37;91.90
62025;BME280;47978;49.118;12.146;2023-01-28T06:25:42;98107.34;;;-0.30;91.77
62025;BME280;47978;49.118;12.146;2023-01-28T06:29:44;98106.34;;;-0.36;91.69
62025;BME280;47978;49.118;12.146;2023-01-28T06:33:47;98111.16;;;-0.38;92.31
62025;BME280;47978;49.118;12.146;2023-01-28T06:37:48;98120.00;;;-0.42;92.72
62025;BME280;47978;49.118;12.146;2023-01-28T06:41:50;98130.91;;;-0.24;91.66
62025;BME280;47978;49.118;12.146;2023-01-28T06:45:51;98135.44;;;-0.11;91.29
62025;BME280;47978;49.118;12.146;2023-01-28T06:49:54;98135.81;;;-0.08;91.09
62025;BME280;47978;49.118;12.146;2023-01-28T06:53:56;98134.41;;;0.08;90.31
62025;BME280;47978;49.118;12.146;2023-01-28T06:57:57;98135.28;;;0.27;90.01
62025;BME280;47978;49.118;12.146;2023-01-28T07:01:59;98144.25;;;0.09;90.47
62025;BME280;47978;49.118;12.146;2023-01-28T07:06:01;98149.28;;;0.06;91.15
62025;BME280;47978;49.118;12.146;2023-01-28T07:10:04;98148.44;;;0.05;91.10
62025;BME280;47978;49.118;12.146;2023-01-28T07:14:05;98155.59;;;-0.01;91.28
62025;BME280;47978;49.118;12.146;2023-01-28T07:18:07;98163.09;;;0.04;91.15
62025;BME280;47978;49.118;12.146;2023-01-28T07:22:10;98168.72;;;0.09;90.97
62025;BME280;47978;49.118;12.146;2023-01-28T07:26:11;98168.91;;;0.08;91.09
62025;BME280;47978;49.118;12.146;2023-01-28T07:30:13;98165.56;;;0.12;91.04
62025;BME280;47978;49.118;12.146;2023-01-28T07:34:15;98165.72;;;0.17;91.20
62025;BME280;47978;49.118;12.146;2023-01-28T07:38:18;98162.13;;;0.17;91.41
62025;BME280;47978;49.118;12.146;2023-01-28T07:42:19;98172.97;;;0.24;90.49
62025;BME280;47978;49.118;12.146;2023-01-28T07:46:21;98171.25;;;0.29;90.22
62025;BME280;47978;49.118;12.146;2023-01-28T07:50:22;98171.81;;;0.38;90.01
62025;BME280;47978;49.118;12.146;2023-01-28T07:54:25;98170.13;;;0.37;89.21
62025;BME280;47978;49.118;12.146;2023-01-28T07:58:27;98170.34;;;0.35;89.96
62025;BME280;47978;49.118;12.146;2023-01-28T08:02:29;98187.59;;;0.48;88.18
62025;BME280;47978;49.118;12.146;2023-01-28T08:06:31;98183.13;;;0.35;89.84
62025;BME280;47978;49.118;12.146;2023-01-28T08:10:34;98188.34;;;0.36;90.38
62025;BME280;47978;49.118;12.146;2023-01-28T08:14:35;98195.75;;;0.48;89.61
62025;BME280;47978;49.118;12.146;2023-01-28T08:18:37;98196.22;;;0.44;89.56
62025;BME280;47978;49.118;12.146;2023-01-28T08:22:38;98201.53;;;0.58;89.18
62025;BME280;47978;49.118;12.146;2023-01-28T08:26:41;98204.19;;;0.64;88.24
62025;BME280;47978;49.118;12.146;2023-01-28T08:30:43;98199.44;;;0.60;88.17
62025;BME280;47978;49.118;12.146;2023-01-28T08:34:44;98205.38;;;0.50;88.65
62025;BME280;47978;49.118;12.146;2023-01-28T08:38:46;98211.19;;;0.54;88.81
62025;BME280;47978;49.118;12.146;2023-01-28T08:42:49;98199.81;;;0.63;88.90
62025;BME280;47978;49.118;12.146;2023-01-28T08:46:51;98200.25;;;0.60;88.70
62025;BME280;47978;49.118;12.146;2023-01-28T08:50:52;98198.28;;;0.67;88.41
62025;BME280;47978;49.118;12.146;2023-01-28T08:54:54;98195.94;;;0.71;88.75
62025;BME280;47978;49.118;12.146;2023-01-28T08:58:56;98197.50;;;0.85;88.11
62025;BME280;47978;49.118;12.146;2023-01-28T09:02:58;98192.41;;;0.89;88.16
62025;BME280;47978;49.118;12.146;2023-01-28T09:06:59;98203.28;;;1.07;86.99
62025;BME280;47978;49.118;12.146;2023-01-28T09:11:01;98212.63;;;1.00;87.07
62025;BME280;47978;49.118;12.146;2023-01-28T09:15:04;98207.09;;;1.06;86.86
62025;BME280;47978;49.118;12.146;2023-01-28T09:19:06;98215.88;;;1.08;86.74
62025;BME280;47978;49.118;12.146;2023-01-28T09:23:07;98217.06;;;1.12;86.16
62025;BME280;47978;49.118;12.146;2023-01-28T09:27:09;98217.38;;;1.04;87.27
62025;BME280;47978;49.118;12.146;2023-01-28T09:31:12;98229.50;;;1.08;87.15
62025;BME280;47978;49.118;12.146;2023-01-28T09:35:13;98234.25;;;0.95;87.97
62025;BME280;47978;49.118;12.146;2023-01-28T09:39:15;98238.84;;;1.12;87.13
62025;BME280;47978;49.118;12.146;2023-01-28T09:43:36;98229.03;;;1.11;86.28
62025;BME280;47978;49.118;12.146;2023-01-28T09:47:42;98240.06;;;0.98;87.51
62025;BME280;47978;49.118;12.146;2023-01-28T09:51:46;98230.59;;;1.01;88.41
62025;BME280;47978;49.118;12.146;2023-01-28T09:55:49;98231.50;;;1.13;86.91
62025;BME280;47978;49.118;12.146;2023-01-28T09:59:53;98238.78;;;1.19;86.54
62025;BME280;47978;49.118;12.146;2023-01-28T10:03:57;98238.16;;;1.35;86.39
62025;BME280;47978;49.118;12.146;2023-01-28T10:08:06;98236.78;;;1.45;85.35
62025;BME280;47978;49.118;12.146;2023-01-28T10:16:40;98245.97;;;1.32;86.28
62025;BME280;47978;49.118;12.146;2023-01-28T10:20:46;98247.56;;;1.21;86.84
62025;BME280;47978;49.118;12.146;2023-01-28T10:24:49;98242.72;;;1.23;86.58
62025;BME280;47978;49.118;12.146;2023-01-28T10:28:55;98239.16;;;1.23;87.09
62025;BME280;47978;49.118;12.146;2023-01-28T10:32:59;98243.63;;;1.35;86.52
62025;BME280;47978;49.118;12.146;2023-01-28T10:37:03;98245.81;;;1.27;87.35
62025;BME280;47978;49.118;12.146;2023-01-28T10:41:05;98239.00;;;1.18;87.81
62025;BME280;47978;49.118;12.146;2023-01-28T10:45:13;98235.69;;;1.34;86.66
62025;BME280;47978;49.118;12.146;2023-01-28T10:49:17;98238.63;;;1.32;86.88
62025;BME280;47978;49.118;12.146;2023-01-28T10:53:33;98234.91;;;1.27;87.40
62025;BME280;47978;49.118;12.146;2023-01-28T10:57:35;98224.16;;;1.32;87.47
62025;BME280;47978;49.118;12.146;2023-01-28T11:01:42;98225.75;;;1.21;88.20
62025;BME280;47978;49.118;12.146;2023-01-28T11:05:49;98230.00;;;1.35;88.29
62025;BME280;47978;49.118;12.146;2023-01-28T11:09:52;98228.41;;;1.46;87.28
62025;BME280;47978;49.118;12.146;2023-01-28T11:13:54;98227.31;;;1.47;87.14
62025;BME280;47978;49.118;12.146;2023-01-28T11:17:56;98220.44;;;1.45;86.55
62025;BME280;47978;49.118;12.146;2023-01-28T11:21:59;98233.22;;;1.44;87.16
62025;BME280;47978;49.118;12.146;2023-01-28T11:26:03;98232.56;;;1.49;86.99
62025;BME280;47978;49.118;12.146;2023-01-28T11:30:18;98234.31;;;1.43;87.25
62025;BME280;47978;49.118;12.146;2023-01-28T11:34:24;98234.06;;;1.45;86.89
62025;BME280;47978;49.118;12.146;2023-01-28T11:38:26;98230.34;;;1.39;87.40
62025;BME280;47978;49.118;12.146;2023-01-28T11:42:29;98227.56;;;1.46;87.81
62025;BME280;47978;49.118;12.146;2023-01-28T11:46:37;98226.34;;;1.42;88.27
62025;BME280;47978;49.118;12.146;2023-01-28T11:50:43;98232.03;;;1.40;88.58
62025;BME280;47978;49.118;12.146;2023-01-28T11:54:50;98226.84;;;1.50;87.47
62025;BME280;47978;49.118;12.146;2023-01-28T11:58:58;98216.34;;;1.54;87.28
62025;BME280;47978;49.118;12.146;2023-01-28T12:03:08;98217.53;;;1.58;87.01
62025;BME280;47978;49.118;12.146;2023-01-28T12:07:20;98211.94;;;1.53;86.78
62025;BME280;47978;49.118;12.146;2023-01-28T12:11:26;98216.88;;;1.44;87.51
62025;BME280;47978;49.118;12.146;2023-01-28T12:15:38;98212.50;;;1.43;88.55
62025;BME280;47978;49.118;12.146;2023-01-28T12:19:51;98212.38;;;1.68;87.57
62025;BME280;47978;49.118;12.146;2023-01-28T12:24:02;98210.03;;;1.53;87.76
62025;BME280;47978;49.118;12.146;2023-01-28T12:28:13;98202.72;;;1.54;88.07
62025;BME280;47978;49.118;12.146;2023-01-28T12:32:22;98211.25;;;1.57;88.05
62025;BME280;47978;49.118;12.146;2023-01-28T12:36:30;98204.13;;;1.56;88.73
62025;BME280;47978;49.118;12.146;2023-01-28T12:44:53;98207.63;;;1.64;88.55
62025;BME280;47978;49.118;12.146;2023-01-28T12:48:58;98203.31;;;1.56;87.95
62025;BME280;47978;49.118;12.146;2023-01-28T12:53:02;98210.19;;;1.58;
62025;BME280;47978;49.118;12.146;2023-01-28T12:57:12;98202.56;;;1.79;86.12
62025;BME280;47978;49.118;12.146;2023-01-28T13:01:15;98204.88;;;1.64;85.95
62025;BME280;47978;49.118;12.146;2023-01-28T13:05:21;98206.94;;;1.68;86.05
62025;BME280;47978;49.118;12.146;2023-01-28T13:09:24;98207.75;;;1.69;86.01
62025;BME280;47978;49.118;12.146;2023-01-28T13:13:29;98215.47;;;1.72;84.29
62025;BME280;47978;49.118;12.146;2023-01-28T13:17:31;98223.28;;;1.68;84.83
62025;BME280;47978;49.118;12.146;2023-01-28T13:21:34;98216.97;;;1.68;84.87
62025;BME280;47978;49.118;12.146;2023-01-28T13:25:49;98209.88;;;1.67;85.23
62025;BME280;47978;49.118;12.146;2023-01-28T13:30:03;98218.59;;;1.87;83.27
62025;BME280;47978;49.118;12.146;2023-01-28T13:34:06;98220.47;;;1.75;82.70
62025;BME280;47978;49.118;12.146;2023-01-28T13:38:12;98221.25;;;1.64;82.09
62025;BME280;47978;49.118;12.146;2023-01-28T13:42:20;98228.97;;;1.67;82.47
62025;BME280;47978;49.118;12.146;2023-01-28T13:46:25;98219.50;;;1.69;81.90
62025;BME280;47978;49.118;12.146;2023-01-28T13:50:31;98234.78;;;1.70;81.43
62025;BME280;47978;49.118;12.146;2023-01-28T13:54:35;98243.59;;;1.54;82.62
62025;BME280;47978;49.118;12.146;2023-01-28T13:58:43;98238.53;;;1.57;81.33
62025;BME280;47978;49.118;12.146;2023-01-28T14:03:07;98241.84;;;1.60;80.54
62025;BME280;47978;49.118;12.146;2023-01-28T14:07:20;98255.25;;;1.61;80.94
62025;BME280;47978;49.118;12.146;2023-01-28T14:11:34;98256.91;;;1.62;80.40
62025;BME280;47978;49.118;12.146;2023-01-28T14:15:54;98258.06;;;1.54;81.35
62025;BME280;47978;49.118;12.146;2023-01-28T14:19:58;98258.88;;;1.55;82.41
62025;BME280;47978;49.118;12.146;2023-01-28T14:24:00;98262.97;;;1.64;81.27
62025;BME280;47978;49.118;12.146;2023-01-28T14:28:03;98262.38;;;1.92;77.46
62025;BME280;47978;49.118;12.146;2023-01-28T14:32:10;98260.53;;;1.56;79.74
62025;BME280;47978;49.118;12.146;2023-01-28T14:36:12;98263.00;;;1.76;79.27
62025;BME280;47978;49.118;12.146;2023-01-28T14:40:14;98271.44;;;1.56;78.72
62025;BME280;47978;49.118;12.146;2023-01-28T14:44:21;98269.03;;;1.48;80.28
62025;BME280;47978;49.118;12.146;2023-01-28T14:48:25;98271.59;;;1.61;79.75
62025;BME280;47978;49.118;12.146;2023-01-28T14:52:37;98275.84;;;1.57;80.37
62025;BME280;47978;49.118;12.146;2023-01-28T14:56:48;98278.94;;;1.61;79.21
62025;BME280;47978;49.118;12.146;2023-01-28T15:00:55;98280.13;;;1.65;78.22
62025;BME280;47978;49.118;12.146;2023-01-28T15:05:06;98282.28;;;1.44;80.14
62025;BME280;47978;49.118;12.146;2023-01-28T15:09:08;98288.25;;;1.53;80.32
62025;BME280;47978;49.118;12.146;2023-01-28T15:13:12;98296.53;;;1.46;79.29
62025;BME280;47978;49.118;12.146;2023-01-28T15:17:20;98299.84;;;1.48;79.06
62025;BME280;47978;49.118;12.146;2023-01-28T15:21:24;98298.00;;;1.42;79.25
62025;BME280;47978;49.118;12.146;2023-01-28T15:25:27;98300.75;;;1.42;79.96
62025;BME280;47978;49.118;12.146;2023-01-28T15:29:30;98312.56;;;1.36;79.74
62025;BME280;47978;49.118;12.146;2023-01-28T15:33:33;98314.25;;;1.37;80.33
62025;BME280;47978;49.118;12.146;2023-01-28T15:37:35;98322.41;;;1.37;80.20
62025;BME280;47978;49.118;12.146;2023-01-28T15:41:38;98322.41;;;1.37;79.51
62025;BME280;47978;49.118;12.146;2023-01-28T15:45:43;98336.03;;;1.37;78.97
62025;BME280;47978;49.118;12.146;2023-01-28T15:49:47;98327.47;;;1.33;78.93
62025;BME280;47978;49.118;12.146;2023-01-28T15:53:51;98332.25;;;1.38;78.37
62025;BME280;47978;49.118;12.146;2023-01-28T15:57:53;98333.91;;;1.39;77.38
62025;BME280;47978;49.118;12.146;2023-01-28T16:02:15;98335.41;;;1.35;78.34
62025;BME280;47978;49.118;12.146;2023-01-28T16:06:19;98343.34;;;1.18;79.70
62025;BME280;47978;49.118;12.146;2023-01-28T16:10:22;98348.41;;;1.15;79.07
62025;BME280;47978;49.118;12.146;2023-01-28T16:14:25;98353.03;;;1.14;79.50
62025;BME280;47978;49.118;12.146;2023-01-28T16:18:29;98356.88;;;1.06;80.47
62025;BME280;47978;49.118;12.146;2023-01-28T16:22:33;98358.53;;;1.07;80.58
62025;BME280;47978;49.118;12.146;2023-01-28T16:26:35;98372.53;;;1.11;79.71
62025;BME280;47978;49.118;12.146;2023-01-28T16:30:37;98369.69;;;0.99;80.38
62025;BME280;47978;49.118;12.146;2023-01-28T16:34:38;98377.09;;;0.92;80.66
62025;BME280;47978;49.118;12.146;2023-01-28T16:38:41;98385.22;;;0.99;80.76
62025;BME280;47978;49.118;12.146;2023-01-28T16:42:42;98389.44;;;1.20;79.75
62025;BME280;47978;49.118;12.146;2023-01-28T16:46:44;98391.75;;;1.16;79.18
62025;BME280;47978;49.118;12.146;2023-01-28T16:50:46;98385.59;;;1.02;79.67
62025;BME280;47978;49.118;12.146;2023-01-28T16:54:48;98390.03;;;0.97;80.73
62025;BME280;47978;49.118;12.146;2023-01-28T16:58:50;98377.56;;;0.89;80.85
62025;BME280;47978;49.118;12.146;2023-01-28T17:02:52;98382.94;;;0.96;80.54
62025;BME280;47978;49.118;12.146;2023-01-28T17:06:54;98395.94;;;0.94;80.46
62025;BME280;47978;49.118;12.146;2023-01-28T17:10:57;98385.16;;;0.80;80.49
62025;BME280;47978;49.118;12.146;2023-01-28T17:14:58;98389.72;;;0.86;80.45
62025;BME280;47978;49.118;12.146;2023-01-28T17:19:00;98395.16;;;0.86;80.32
62025;BME280;47978;49.118;12.146;2023-01-28T17:23:01;98387.81;;;0.87;79.56
62025;BME280;47978;49.118;12.146;2023-01-28T17:27:04;98390.53;;;0.87;80.08
62025;BME280;47978;49.118;12.146;2023-01-28T17:31:07;98391.81;;;0.84;79.79
62025;BME280;47978;49.118;12.146;2023-01-28T17:35:08;98388.72;;;0.81;80.31
62025;BME280;47978;49.118;12.146;2023-01-28T17:39:10;98395.16;;;0.86;80.37
62025;BME280;47978;49.118;12.146;2023-01-28T17:43:13;98399.38;;;0.82;80.27
62025;BME280;47978;49.118;12.146;2023-01-28T17:47:14;98404.03;;;0.75;80.41
62025;BME280;47978;49.118;12.146;2023-01-28T17:51:16;98410.94;;;0.78;80.27
62025;BME280;47978;49.118;12.146;2023-01-28T17:55:18;98411.59;;;0.73;80.08
62025;BME280;47978;49.118;12.146;2023-01-28T17:59:21;98407.41;;;0.71;79.44
62025;BME280;47978;49.118;12.146;2023-01-28T18:03:25;98400.03;;;0.78;78.28
62025;BME280;47978;49.118;12.146;2023-01-28T18:07:26;98406.75;;;0.75;78.47
62025;BME280;47978;49.118;12.146;2023-01-28T18:11:28;98405.94;;;0.75;78.11
62025;BME280;47978;49.118;12.146;2023-01-28T18:15:31;98397.94;;;0.80;78.99
62025;BME280;47978;49.118;12.146;2023-01-28T18:19:32;98413.97;;;0.63;80.00
62025;BME280;47978;49.118;12.146;2023-01-28T18:23:34;98415.81;;;0.69;80.00
62025;BME280;47978;49.118;12.146;2023-01-28T18:27:36;98414.09;;;0.75;79.19
62025;BME280;47978;49.118;12.146;2023-01-28T18:31:39;98399.25;;;0.71;79.21
62025;BME280;47978;49.118;12.146;2023-01-28T18:35:41;98401.06;;;0.77;78.78
62025;BME280;47978;49.118;12.146;2023-01-28T18:39:42;98401.56;;;0.67;79.05
62025;BME280;47978;49.118;12.146;2023-01-28T18:43:45;98405.44;;;0.53;80.59
62025;BME280;47978;49.118;12.146;2023-01-28T18:47:47;98404.78;;;0.57;80.57
62025;BME280;47978;49.118;12.146;2023-01-28T18:51:49;98398.28;;;0.58;80.33
62025;BME280;47978;49.118;12.146;2023-01-28T18:55:51;98409.47;;;0.43;80.69
62025;BME280;47978;49.118;12.146;2023-01-28T18:59:52;98414.03;;;0.50;80.29
62025;BME280;47978;49.118;12.146;2023-01-28T19:03:55;98417.97;;;0.54;79.76
62025;BME280;47978;49.118;12.146;2023-01-28T19:07:57;98423.47;;;0.47;79.90
62025;BME280;47978;49.118;12.146;2023-01-28T19:11:58;98428.72;;;0.42;80.82
62025;BME280;47978;49.118;12.146;2023-01-28T19:16:00;98439.19;;;0.45;80.22
62025;BME280;47978;49.118;12.146;2023-01-28T19:20:03;98427.84;;;0.48;80.42
62025;BME280;47978;49.118;12.146;2023-01-28T19:24:06;98425.13;;;0.48;80.25
62025;BME280;47978;49.118;12.146;2023-01-28T19:28:08;98435.75;;;0.56;79.58
62025;BME280;47978;49.118;12.146;2023-01-28T19:32:09;98440.19;;;0.57;79.83
62025;BME280;47978;49.118;12.146;2023-01-28T19:36:12;98441.38;;;0.61;78.23
62025;BME280;47978;49.118;12.146;2023-01-28T19:40:14;98453.09;;;0.62;78.60
62025;BME280;47978;49.118;12.146;2023-01-28T19:44:16;98459.66;;;0.54;78.68
62025;BME280;47978;49.118;12.146;2023-01-28T19:48:17;98440.25;;;0.44;79.07
62025;BME280;47978;49.118;12.146;2023-01-28T19:52:20;98448.59;;;0.42;79.00
62025;BME280;47978;49.118;12.146;2023-01-28T19:56:22;98456.19;;;0.34;79.57
62025;BME280;47978;49.118;12.146;2023-01-28T20:00:24;98458.06;;;0.40;79.46
62025;BME280;47978;49.118;12.146;2023-01-28T20:04:26;98458.25;;;0.38;79.94
62025;BME280;47978;49.118;12.146;2023-01-28T20:08:29;98463.25;;;0.41;79.32
62025;BME280;47978;49.118;12.146;2023-01-28T20:12:30;98462.63;;;0.46;78.68
62025;BME280;47978;49.118;12.146;2023-01-28T20:16:32;98468.31;;;0.38;79.24
62025;BME280;47978;49.118;12.146;2023-01-28T20:20:34;98463.31;;;0.28;79.05
62025;BME280;47978;49.118;12.146;2023-01-28T20:24:37;98464.38;;;0.27;77.89
62025;BME280;47978;49.118;12.146;2023-01-28T20:28:38;98486.34;;;0.26;78.43
62025;BME280;47978;49.118;12.146;2023-01-28T20:32:40;98491.19;;;0.24;78.83
62025;BME280;47978;49.118;12.146;2023-01-28T20:36:41;98496.38;;;0.32;78.18
62025;BME280;47978;49.118;12.146;2023-01-28T20:40:45;98503.09;;;0.29;78.83
62025;BME280;47978;49.118;12.146;2023-01-28T20:44:46;98500.56;;;0.28;78.37
62025;BME280;47978;49.118;12.146;2023-01-28T20:48:48;98495.59;;;0.18;78.65
62025;BME280;47978;49.118;12.146;2023-01-28T20:52:50;98497.25;;;0.19;78.39
62025;BME280;47978;49.118;12.146;2023-01-28T20:56:53;98511.47;;;0.21;78.18
62025;BME280;47978;49.118;12.146;2023-01-28T21:00:55;98511.09;;;0.17;77.47
62025;BME280;47978;49.118;12.146;2023-01-28T21:04:56;98512.72;;;0.25;77.67
62025;BME280;47978;49.118;12.146;2023-01-28T21:08:58;98519.84;;;0.19;78.40
62025;BME280;47978;49.118;12.146;2023-01-28T21:13:01;98517.16;;;0.13;78.51
62025;BME280;47978;49.118;12.146;2023-01-28T21:17:03;98515.69;;;0.10;78.89
62025;BME280;47978;49.118;12.146;2023-01-28T21:21:05;98523.41;;;0.13;77.14
62025;BME280;47978;49.118;12.146;2023-01-28T21:25:07;98509.38;;;0.16;77.08
62025;BME280;47978;49.118;12.146;2023-01-28T21:29:10;98512.97;;;0.10;77.91
62025;BME280;47978;49.118;12.146;2023-01-28T21:33:12;98513.59;;;0.12;76.82
62025;BME280;47978;49.118;12.146;2023-01-28T21:37:13;98514.41;;;0.19;76.07